Terminal Aerodrome Forecast
Issued by NWS

Current Version | Previous Version | Text Only | Print | Product List | Glossary On
Versions: 1 2 3 4 5 6 7 8 9 10 11 12 13 14 15 16
000
FTUS44 KLIX 250441 AAA
TAFMSY
TAF AMD
KMSY 250441Z 2505/2524 14013KT P6SM OVC021
     FM250600 16012G20KT P6SM BKN025
     FM250900 17010KT P6SM BKN025
      TEMPO 2514/2517 17015G30KT 2SM TSRA BKN015CB
     FM251700 19012KT P6SM VCSH OVC040=

USA.gov is the U.S. government's official web portal to all federal, state and local government web resources and services.